FW7798 Weather Reports


Display with metric or nautical units.
time (UTC)temp
F
wind
direction
speed
MPH
gust
MPH
rain 1hr
in
rain 24hr
in
rain mn
in
humidity
%
barometer
mb
20220814101415 68 90 0.0 0.0 0.00 0.00 0.00 79 1014.2
20220814100415 68 90 0.0 0.0 0.00 0.00 0.00 79 1014.1
20220814094513 67 90 0.0 0.0 0.00 0.00 0.00 77 1014.2
20220814083615 70 90 0.0 0.0 0.00 0.00 0.00 72 1014.4
20220814081614 70 90 0.0 0.0 0.00 0.00 0.00 71 1014.4
20220814074715 71 90 0.0 0.0 0.00 0.00 0.00 70 1014.3
20220814073714 71 90 0.0 0.0 0.00 0.00 0.00 70 1014.5
20220814071813 72 90 0.0 0.0 0.00 0.00 0.00 70 1014.3
20220814070814 72 90 0.0 0.0 0.00 0.00 0.00 69 1014.4
20220814063914 72 90 0.0 0.0 0.00 0.00 0.00 69 1014.3
20220814062914 72 90 0.0 0.0 0.00 0.00 0.00 68 1014.2
20220814061915 73 90 0.0 0.0 0.00 0.00 0.00 66 1014.3
20220814060915 73 90 0.0 0.0 0.00 0.00 0.00 66 1014.3
20220814053015 74 90 0.0 0.0 0.00 0.00 0.00 64 1014.3
20220814051213 74 90 0.0 0.0 0.00 0.00 0.00 61 1014.3
20220814044226 74 90 0.0 0.0 0.00 0.00 0.00 60 1014.3
20220814041324 76 90 0.0 0.0 0.00 0.00 0.00 58 1014.1
20220814035426 77 90 0.0 0.0 0.00 0.00 0.00 55 1014.0
20220814033524 78 90 0.0 0.0 0.00 0.00 0.00 53 1014.2
20220814030523 80 90 0.0 0.0 0.00 0.00 0.00 49 1013.9
20220814025524 81 90 0.0 0.0 0.00 0.00 0.00 46 1013.9
20220814024622 83 90 0.0 0.0 0.00 0.00 0.00 45 1013.8
20220814023624 84 90 0.0 0.0 0.00 0.00 0.00 44 1013.6
20220814012922 90 112 0.0 1.0 0.00 0.00 0.00 37 1013.4
20220814011023 92 118 3.0 6.0 0.00 0.00 0.00 36 1013.2
20220814004123 95 129 4.0 5.0 0.00 0.00 0.00 32 1013.2
20220814002124 96 112 2.0 2.0 0.00 0.00 0.00 29 1013.0
20220813235022 96 110 2.0 4.0 0.00 0.00 0.00 30 1013.2
20220813234121 97 90 4.0 9.0 0.00 0.00 0.00 30 1013.1
20220813232123 96 142 4.0 7.0 0.00 0.00 0.00 30 1013.2
20220813230124 98 173 6.0 10.0 0.00 0.00 0.00 28 1013.4
20220813230023 98 165 5.0 8.0 0.00 0.00 0.00 29 1013.4
20220813225023 98 81 6.0 10.0 0.00 0.00 0.00 29 1013.4
20220813222923 98 166 8.0 11.0 0.00 0.00 0.00 29 1013.5
20220813220924 98 67 6.0 10.0 0.00 0.00 0.00 30 1013.6
20220813215923 98 79 2.0 5.0 0.00 0.00 0.00 30 1013.5
20220813214922 98 180 3.0 4.0 0.00 0.00 0.00 30 1013.8
20220813213922 98 136 3.0 9.0 0.00 0.00 0.00 31 1013.9
20220813211923 96 77 4.0 7.0 0.00 0.00 0.00 34 1013.9
20220813210022 97 91 6.0 10.0 0.00 0.00 0.00 31 1013.9
20220813203122 97 65 5.0 9.0 0.00 0.00 0.00 32 1014.3
20220813202122 97 101 4.0 9.0 0.00 0.00 0.00 32 1014.5
20220813201122 97 128 6.0 10.0 0.00 0.00 0.00 33 1014.5
20220813195124 96 135 6.0 10.0 0.00 0.00 0.00 35 1014.6
20220813194124 95 133 5.0 7.0 0.00 0.00 0.00 37 1015.0
20220813193122 95 108 5.0 10.0 0.00 0.00 0.00 37 1015.2
20220813191222 96 67 1.0 5.0 0.00 0.00 0.00 38 1015.2
20220813190223 95 78 4.0 5.0 0.00 0.00 0.00 40 1015.4
20220813185223 95 82 6.0 11.0 0.00 0.00 0.00 43 1015.6
20220813184224 94 99 5.0 8.0 0.00 0.00 0.00 43 1015.8
20220813181321 94 116 0.0 4.0 0.00 0.00 0.00 43 1016.1
20220813180322 93 90 0.0 2.0 0.00 0.00 0.00 45 1016.3
20220813172322 92 107 2.0 5.0 0.00 0.00 0.00 49 1016.8
20220813171222 92 123 3.0 4.0 0.00 0.00 0.00 51 1016.9
20220813170223 90 36 4.0 7.0 0.00 0.00 0.00 52 1017.0
20220813165223 90 90 1.0 2.0 0.00 0.00 0.00 52 1017.2
20220813161324 89 156 4.0 6.0 0.00 0.00 0.00 55 1017.5
20220813155521 89 124 3.0 5.0 0.00 0.00 0.00 56 1017.6
20220813154423 88 114 4.0 6.0 0.00 0.00 0.00 57 1017.6
20220813153521 88 135 0.0 3.0 0.00 0.00 0.00 58 1017.8
20220813152522 86 112 2.0 4.0 0.00 0.00 0.00 60 1017.6
20220813151524 86 127 6.0 9.0 0.00 0.00 0.00 61 1017.8
20220813145621 85 121 4.0 6.0 0.00 0.00 0.00 63 1017.7
20220813141621 83 124 4.0 7.0 0.00 0.00 0.00 65 1017.8
20220813141522 83 112 4.0 8.0 0.00 0.00 0.00 64 1017.8
20220813135622 82 126 3.0 6.0 0.00 0.00 0.00 68 1017.9
20220813134623 81 112 4.0 6.0 0.00 0.00 0.00 70 1017.7
20220813133722 80 120 6.0 7.0 0.00 0.00 0.00 73 1017.8
20220813132723 79 91 2.0 5.0 0.00 0.00 0.00 76 1017.8
20220813124821 75 90 1.0 2.0 0.00 0.00 0.00 86 1017.5
20220813123021 73 112 0.0 0.0 0.00 0.00 0.00 88 1017.5
20220813113121 73 112 0.0 0.0 0.00 0.00 0.00 86 1017.0
20220813112124 73 112 0.0 0.0 0.00 0.00 0.00 85 1017.0
20220813111123 73 112 0.0 0.0 0.00 0.00 0.00 83 1016.8
20220813104121 73 112 0.0 0.0 0.00 0.00 0.00 82 1016.6
20220813102121 74 112 0.0 0.0 0.00 0.00 0.00 82 1016.6